Time;durP1;ratioP1;P1;durP2;ratioP2;P2;SDS_P1;SDS_P2;PMS_P1;PMS_P2;Temp;Humidity;BMP_temperature;BMP_pressure;BME280_temperature;BME280_humidity;BME280_pressure;Samples;Min_cycle;Max_cycle;Signal;HPM_P1;HPM_P2
2023/08/31 00:01:24;;;;;;;11.20;9.50;;;;;;;16.03;74.83;99587.71;111150;1254;23588;-78
2023/08/31 00:03:57;;;;;;;10.40;8.90;;;;;;;16.04;74.77;99588.38;110980;1258;23599;-77
2023/08/31 00:06:27;;;;;;;10.20;9.20;;;;;;;16.04;74.86;99591.33;110534;1264;22040;-78
2023/08/31 00:09:05;;;;;;;10.60;9.60;;;;;;;16.05;74.96;99588.12;110558;1264;23680;-78
2023/08/31 00:11:44;;;;;;;10.00;9.10;;;;;;;16.04;74.91;99589.74;110129;1264;21982;-77
2023/08/31 00:14:14;;;;;;;9.90;9.00;;;;;;;16.05;75.03;99589.69;110390;1264;21967;-77
2023/08/31 00:16:50;;;;;;;11.20;9.90;;;;;;;16.06;75.04;99589.11;109596;1270;21994;-77
2023/08/31 00:19:20;;;;;;;9.80;8.70;;;;;;;16.07;75.15;99586.21;109360;1274;22831;-78
2023/08/31 00:21:53;;;;;;;10.00;9.20;;;;;;;16.08;75.10;99589.30;109457;1271;23880;-78
2023/08/31 00:24:29;;;;;;;9.00;8.20;;;;;;;16.08;75.18;99591.71;109716;1264;22935;-77
2023/08/31 00:27:03;;;;;;;10.80;9.70;;;;;;;16.09;75.10;99594.00;110324;1264;22332;-78
2023/08/31 00:29:39;;;;;;;12.10;9.70;;;;;;;16.09;75.17;99594.52;110659;1257;23036;-77
2023/08/31 00:32:13;;;;;;;10.00;9.00;;;;;;;16.08;75.19;99592.61;110281;1264;22316;-77
2023/08/31 00:34:45;;;;;;;9.70;8.60;;;;;;;16.09;75.31;99591.33;110553;1260;21960;-77
2023/08/31 00:37:21;;;;;;;11.00;8.60;;;;;;;16.09;75.32;99592.73;111105;1254;22021;-77
2023/08/31 00:39:56;;;;;;;9.60;8.50;;;;;;;16.09;75.32;99589.73;111219;1254;22051;-78
2023/08/31 00:42:29;;;;;;;11.00;10.00;;;;;;;16.09;75.29;99588.17;110758;1260;23735;-77
2023/08/31 00:45:03;;;;;;;10.50;9.50;;;;;;;16.08;75.28;99587.90;110549;1261;23027;-77
2023/08/31 00:47:34;;;;;;;9.30;8.40;;;;;;;16.07;75.25;99586.58;109847;1268;22834;-78
2023/08/31 00:50:13;;;;;;;9.80;8.80;;;;;;;16.07;75.33;99585.72;109773;1268;22051;-77
2023/08/31 00:52:48;;;;;;;10.50;9.30;;;;;;;16.03;75.21;99585.77;109595;1268;23031;-77
2023/08/31 00:55:26;;;;;;;9.50;8.60;;;;;;;16.02;75.34;99587.62;109104;1275;23605;-76
2023/08/31 00:58:05;;;;;;;;;;;;;;;16.01;75.48;99591.00;109197;1275;21984;-77
2023/08/31 01:01:00;;;;;;;9.40;8.50;;;;;;;15.91;75.64;99588.73;109365;1270;21993;-78
2023/08/31 01:04:07;;;;;;;9.10;8.00;;;;;;;15.87;75.61;99586.95;109600;1270;23579;-78
2023/08/31 01:07:04;;;;;;;8.60;7.80;;;;;;;15.87;75.85;99588.70;110103;1266;21964;-78
2023/08/31 01:10:04;;;;;;;8.50;7.60;;;;;;;15.86;75.75;99591.58;110112;1266;21972;-77
2023/08/31 01:12:45;;;;;;;8.30;7.50;;;;;;;15.84;75.87;99591.55;109806;1260;21998;-77
2023/08/31 01:15:17;;;;;;;8.30;7.50;;;;;;;15.88;75.83;99593.70;109983;1256;21996;-76
2023/08/31 01:17:52;;;;;;;8.20;7.40;;;;;;;15.90;75.95;99596.77;109176;1271;21993;-76
2023/08/31 01:20:34;;;;;;;8.90;8.10;;;;;;;15.91;76.01;99594.92;109558;1271;23593;-77
2023/08/31 01:23:47;;;;;;;9.00;8.20;;;;;;;15.92;76.02;99597.62;108921;1271;21953;-77
2023/08/31 01:26:27;;;;;;;9.10;8.40;;;;;;;15.89;76.12;99597.84;109021;1277;21983;-76
2023/08/31 01:28:58;;;;;;;10.10;9.10;;;;;;;15.91;76.10;99596.30;109043;1277;22421;-77
2023/08/31 01:31:32;;;;;;;9.20;8.30;;;;;;;15.93;76.15;99593.35;109076;1276;23605;-77
2023/08/31 01:34:03;;;;;;;9.40;8.40;;;;;;;15.95;76.05;99594.25;109372;1272;21979;-76
2023/08/31 01:36:38;;;;;;;9.40;8.50;;;;;;;15.96;75.94;99595.61;109359;1271;24462;-76
2023/08/31 01:39:42;;;;;;;9.90;8.90;;;;;;;15.95;75.93;99598.98;109125;1275;21999;-75
2023/08/31 01:42:16;;;;;;;10.30;9.40;;;;;;;15.92;75.94;99603.43;109652;1271;21975;-76
2023/08/31 01:44:50;;;;;;;10.50;9.10;;;;;;;15.88;75.77;99603.70;109463;1271;21975;-77
2023/08/31 01:47:25;;;;;;;10.30;9.10;;;;;;;15.80;75.71;99607.30;109604;1271;21977;-78
2023/08/31 01:49:57;;;;;;;10.30;9.20;;;;;;;15.74;75.81;99604.21;109077;1274;21997;-76
2023/08/31 01:52:35;;;;;;;9.60;8.30;;;;;;;15.67;75.94;99602.38;109375;1272;22993;-77
2023/08/31 01:55:13;;;;;;;10.80;9.10;;;;;;;15.62;76.10;99599.07;109626;1270;21932;-78
2023/08/31 01:57:58;;;;;;;9.90;9.00;;;;;;;15.57;76.23;99597.84;109674;1268;21970;-77
2023/08/31 02:00:40;;;;;;;9.20;8.50;;;;;;;15.50;76.37;99596.18;110052;1263;21968;-77
2023/08/31 02:03:18;;;;;;;9.30;8.40;;;;;;;15.47;76.53;99594.46;110270;1263;21990;-77
2023/08/31 02:05:51;;;;;;;9.60;8.60;;;;;;;15.45;76.59;99596.17;110422;1263;23053;-78
2023/08/31 02:08:28;;;;;;;10.40;9.30;;;;;;;15.42;76.80;99596.74;110618;1259;21981;-78
2023/08/31 02:10:58;;;;;;;9.90;8.80;;;;;;;15.43;76.85;99600.20;110629;1263;22910;-78
2023/08/31 02:13:30;;;;;;;9.80;9.00;;;;;;;15.40;76.93;99601.26;110004;1268;23865;-77
2023/08/31 02:16:05;;;;;;;16.70;9.50;;;;;;;15.37;76.98;99599.04;109777;1265;21974;-77
2023/08/31 02:18:40;;;;;;;11.80;9.30;;;;;;;15.34;77.12;99599.23;110175;1265;21983;-77
2023/08/31 02:21:16;;;;;;;11.80;8.50;;;;;;;15.34;77.25;99595.95;110511;1264;21970;-78
2023/08/31 02:23:53;;;;;;;11.30;9.10;;;;;;;15.33;77.29;99591.96;110252;1265;22003;-77
2023/08/31 02:26:24;;;;;;;10.20;9.30;;;;;;;15.32;77.42;99589.20;109598;1271;23078;-77
2023/08/31 02:28:54;;;;;;;11.40;8.80;;;;;;;15.35;77.41;99591.14;109561;1271;23538;-76
2023/08/31 02:31:38;;;;;;;10.00;9.00;;;;;;;15.33;77.38;99594.77;109906;1266;21984;-76
2023/08/31 02:34:08;;;;;;;9.30;8.40;;;;;;;15.30;77.36;99591.83;110365;1266;22834;-77
2023/08/31 02:36:38;;;;;;;10.40;8.20;;;;;;;15.27;77.47;99589.05;110762;1260;22029;-77
2023/08/31 02:39:09;;;;;;;8.60;7.90;;;;;;;15.26;77.57;99585.24;110557;1260;22909;-77
2023/08/31 02:41:42;;;;;;;9.30;8.50;;;;;;;15.27;77.61;99586.77;110783;1260;21972;-76
2023/08/31 02:44:14;;;;;;;9.80;8.10;;;;;;;15.30;77.82;99584.83;110883;1254;21963;-75
2023/08/31 02:46:47;;;;;;;7.80;7.00;;;;;;;15.32;77.88;99582.55;110861;1259;22970;-77
2023/08/31 02:49:20;;;;;;;9.70;8.20;;;;;;;15.34;77.85;99582.23;110316;1262;21963;-76
2023/08/31 02:51:51;;;;;;;9.10;7.20;;;;;;;15.36;77.80;99581.23;109878;1267;21977;-76
2023/08/31 02:54:21;;;;;;;8.30;7.50;;;;;;;15.37;77.74;99583.59;109511;1273;21982;-77
2023/08/31 02:56:53;;;;;;;8.40;7.40;;;;;;;15.38;77.67;99585.66;109337;1273;22762;-76
2023/08/31 02:59:26;;;;;;;8.10;7.30;;;;;;;15.37;77.56;99588.70;109417;1273;23015;-79
2023/08/31 03:01:57;;;;;;;12.20;8.20;;;;;;;15.35;77.42;99590.06;108776;1278;21980;-77
2023/08/31 03:04:29;;;;;;;9.00;8.20;;;;;;;15.32;77.40;99589.07;108686;1278;21985;-77
2023/08/31 03:07:01;;;;;;;9.50;7.60;;;;;;;15.29;77.41;99589.94;108670;1279;21984;-78
2023/08/31 03:09:35;;;;;;;10.10;8.00;;;;;;;15.27;77.35;99593.59;108942;1280;23747;-76
2023/08/31 03:12:08;;;;;;;10.30;8.60;;;;;;;15.23;77.26;99591.95;108727;1277;22003;-77
2023/08/31 03:14:40;;;;;;;14.00;8.60;;;;;;;15.20;77.27;99599.52;109069;1277;21980;-77
2023/08/31 03:17:09;;;;;;;9.80;7.20;;;;;;;15.17;77.22;99597.98;109189;1273;23034;-76
2023/08/31 03:19:39;;;;;;;8.50;7.70;;;;;;;15.14;77.14;99599.95;109522;1269;23625;-76
2023/08/31 03:22:13;;;;;;;9.40;7.70;;;;;;;15.07;77.18;99603.71;110156;1265;21944;-75
2023/08/31 03:24:43;;;;;;;8.20;7.40;;;;;;;15.00;77.23;99604.91;110438;1258;21975;-77
2023/08/31 03:27:16;;;;;;;14.50;12.00;;;;;;;14.93;77.39;99608.19;110834;1258;22075;-76
2023/08/31 03:29:49;;;;;;;11.50;10.30;;;;;;;14.85;77.50;99605.55;110292;1260;23615;-78
2023/08/31 03:32:24;;;;;;;10.30;9.40;;;;;;;14.81;77.60;99605.83;110807;1260;22896;-77
2023/08/31 03:34:56;;;;;;;13.30;12.20;;;;;;;14.75;77.75;99603.60;110911;1260;22328;-78
2023/08/31 03:37:28;;;;;;;13.60;9.30;;;;;;;14.71;77.86;99604.76;110963;1259;23856;-77
2023/08/31 03:40:07;;;;;;;10.60;9.30;;;;;;;14.70;78.07;99606.23;110751;1260;21964;-77
2023/08/31 03:42:39;;;;;;;9.10;8.40;;;;;;;14.69;78.13;99603.80;110877;1259;21964;-77
2023/08/31 03:45:10;;;;;;;9.90;8.80;;;;;;;14.69;78.28;99602.81;110837;1261;22013;-77
2023/08/31 03:47:46;;;;;;;14.00;9.60;;;;;;;14.69;78.32;99607.88;110960;1254;21952;-76
2023/08/31 03:50:16;;;;;;;11.50;10.00;;;;;;;14.72;78.49;99602.06;111240;1254;22041;-76
2023/08/31 03:52:47;;;;;;;9.50;8.70;;;;;;;14.71;78.52;99603.02;110735;1260;21967;-77
2023/08/31 03:55:17;;;;;;;12.70;10.10;;;;;;;14.72;78.53;99599.27;110624;1259;22108;-77
2023/08/31 03:57:50;;;;;;;11.70;10.50;;;;;;;14.72;78.56;99595.56;110734;1260;23710;-77
2023/08/31 04:00:23;;;;;;;15.20;12.30;;;;;;;14.73;78.44;99596.73;110830;1260;21959;-77
2023/08/31 04:02:55;;;;;;;14.80;13.30;;;;;;;14.72;78.35;99598.91;110834;1260;23053;-77
2023/08/31 04:05:35;;;;;;;17.40;15.70;;;;;;;14.69;78.33;99600.70;110808;1260;21964;-78
2023/08/31 04:08:06;;;;;;;21.20;16.70;;;;;;;14.66;78.27;99605.23;110406;1266;23050;-79
2023/08/31 04:10:43;;;;;;;16.20;14.20;;;;;;;14.62;78.15;99603.77;110350;1259;23589;-76
2023/08/31 04:13:22;;;;;;;14.10;12.60;;;;;;;14.57;78.09;99601.82;110680;1259;22005;-79
2023/08/31 04:16:04;;;;;;;14.30;13.00;;;;;;;14.51;78.15;99602.54;110885;1252;23021;-77
2023/08/31 04:18:51;;;;;;;21.30;17.40;;;;;;;14.44;78.28;99599.51;110799;1259;21961;-78
2023/08/31 04:21:37;;;;;;;26.40;24.00;;;;;;;14.39;78.33;99602.59;110067;1266;21966;-77
2023/08/31 04:24:14;;;;;;;25.40;22.90;;;;;;;14.35;78.47;99602.73;110038;1260;23695;-77
2023/08/31 04:26:53;;;;;;;22.60;20.40;;;;;;;14.33;78.48;99604.59;110432;1265;23809;-77
2023/08/31 04:29:39;;;;;;;23.40;21.30;;;;;;;14.32;78.58;99606.42;110092;1266;23738;-78
2023/08/31 04:32:38;;;;;;;21.90;19.90;;;;;;;14.30;78.76;99605.17;109894;1260;21966;-77
2023/08/31 04:35:20;;;;;;;26.50;24.30;;;;;;;14.28;78.88;99606.50;110757;1260;23657;-77
2023/08/31 04:38:07;;;;;;;31.20;28.70;;;;;;;14.26;78.91;99610.46;110821;1260;23615;-78
2023/08/31 04:41:10;;;;;;;29.40;26.80;;;;;;;14.29;79.12;99615.39;107912;1254;4270294;-81
2023/08/31 04:43:54;;;;;;;34.70;31.90;;;;;;;14.33;79.43;99618.28;110883;1261;23023;-78
2023/08/31 04:46:44;;;;;;;34.60;31.90;;;;;;;14.39;79.33;99620.83;110825;1262;21978;-78
2023/08/31 04:49:26;;;;;;;34.00;31.20;;;;;;;14.45;79.43;99619.03;110382;1266;21973;-78
2023/08/31 04:52:08;;;;;;;33.10;30.50;;;;;;;14.53;79.52;99620.27;109894;1267;21973;-78
2023/08/31 04:55:04;;;;;;;31.50;28.80;;;;;;;14.62;79.51;99622.30;109861;1267;21975;-77
2023/08/31 04:57:47;;;;;;;28.20;25.90;;;;;;;14.67;79.47;99624.42;110339;1266;23746;-77
2023/08/31 05:00:30;;;;;;;27.90;25.30;;;;;;;14.76;79.47;99629.63;110049;1267;21969;-77
2023/08/31 05:03:09;;;;;;;27.70;25.20;;;;;;;14.86;79.45;99631.40;109900;1267;23721;-77
2023/08/31 05:05:46;;;;;;;26.00;23.70;;;;;;;14.96;79.23;99632.30;109310;1272;21988;-77
2023/08/31 05:08:18;;;;;;;25.60;23.40;;;;;;;15.02;79.00;99634.39;109964;1267;21968;-77
2023/08/31 05:10:56;;;;;;;26.40;24.10;;;;;;;15.04;78.66;99634.04;110182;1267;22002;-76
2023/08/31 05:13:30;;;;;;;28.60;26.10;;;;;;;15.05;78.31;99636.95;109574;1272;21977;-77
2023/08/31 05:16:07;;;;;;;32.60;29.70;;;;;;;15.03;78.09;99637.09;109234;1276;21981;-76
2023/08/31 05:18:41;;;;;;;29.60;27.20;;;;;;;15.00;77.99;99636.98;109124;1275;22035;-78
2023/08/31 05:21:44;;;;;;;25.00;22.70;;;;;;;15.00;78.01;99635.76;108903;1276;22572;-76
2023/08/31 05:24:16;;;;;;;27.70;25.00;;;;;;;15.02;78.07;99640.48;109276;1270;21974;-76
2023/08/31 05:26:47;;;;;;;24.80;22.50;;;;;;;15.06;78.10;99644.46;109595;1268;22016;-75
2023/08/31 05:29:24;;;;;;;22.40;20.20;;;;;;;15.11;77.97;99647.11;108975;1275;23149;-76
2023/08/31 05:32:17;;;;;;;21.10;18.90;;;;;;;15.12;77.89;99645.27;108969;1275;22007;-75
2023/08/31 05:34:53;;;;;;;19.70;17.80;;;;;;;15.16;78.03;99642.52;108716;1275;22138;-76
2023/08/31 05:37:45;;;;;;;19.80;17.70;;;;;;;15.25;78.08;99646.52;108912;1277;22400;-78
2023/08/31 05:40:29;;;;;;;19.50;17.50;;;;;;;15.35;78.21;99643.55;109551;1267;22125;-78
2023/08/31 05:43:00;;;;;;;24.10;18.60;;;;;;;15.48;78.20;99649.30;109413;1272;22263;-76
2023/08/31 05:45:36;;;;;;;14.50;13.20;;;;;;;15.62;78.13;99646.24;109507;1272;22185;-75
2023/08/31 05:48:18;;;;;;;14.90;11.90;;;;;;;15.72;77.78;99650.63;109364;1272;22029;-74
2023/08/31 05:50:50;;;;;;;14.80;11.40;;;;;;;15.80;77.35;99649.89;109626;1270;23668;-75
2023/08/31 05:53:24;;;;;;;13.80;10.30;;;;;;;15.89;76.98;99649.45;109772;1261;21970;-75
2023/08/31 05:56:04;;;;;;;15.50;9.90;;;;;;;15.97;76.63;99654.30;110133;1266;21973;-75
2023/08/31 05:58:39;;;;;;;15.20;9.90;;;;;;;16.01;76.40;99646.46;110367;1265;23027;-73
2023/08/31 06:01:13;;;;;;;10.60;8.80;;;;;;;16.12;75.93;99649.02;110019;1263;21976;-75
2023/08/31 06:03:50;;;;;;;10.30;8.10;;;;;;;16.20;75.58;99648.28;110478;1263;21969;-75
2023/08/31 06:06:29;;;;;;;8.80;7.90;;;;;;;16.29;75.30;99643.56;110548;1263;22051;-78
2023/08/31 06:08:59;;;;;;;9.30;8.00;;;;;;;16.44;75.21;99645.51;110200;1265;23027;-76
2023/08/31 06:11:35;;;;;;;8.70;7.90;;;;;;;16.57;74.35;99644.37;110201;1265;22372;-76
2023/08/31 06:14:10;;;;;;;10.20;8.00;;;;;;;16.69;73.81;99643.44;110326;1261;22819;-75
2023/08/31 06:16:43;;;;;;;9.10;8.20;;;;;;;16.87;73.74;99641.42;110106;1268;23028;-77
2023/08/31 06:19:22;;;;;;;12.10;8.90;;;;;;;17.10;73.33;99641.15;110013;1267;23594;-76
2023/08/31 06:22:00;;;;;;;14.70;7.90;;;;;;;17.34;72.86;99645.29;110003;1268;23675;-75
2023/08/31 06:24:33;;;;;;;8.80;7.30;;;;;;;17.57;72.18;99656.83;110018;1267;21975;-76
2023/08/31 06:27:06;;;;;;;11.50;7.50;;;;;;;17.76;71.40;99659.23;110000;1260;21980;-76
2023/08/31 06:29:43;;;;;;;9.40;8.60;;;;;;;17.91;70.69;99659.48;109166;1273;21978;-76
2023/08/31 06:32:23;;;;;;;9.80;7.70;;;;;;;17.98;69.62;99663.34;109394;1272;22522;-77
2023/08/31 06:35:01;;;;;;;12.40;8.70;;;;;;;17.99;69.09;99666.63;109720;1266;21984;-74
2023/08/31 06:37:36;;;;;;;9.40;7.50;;;;;;;18.04;68.98;99665.48;110327;1266;21975;-75
2023/08/31 06:40:16;;;;;;;9.10;6.80;;;;;;;18.23;69.23;99673.02;109988;1266;22023;-76
2023/08/31 06:42:57;;;;;;;7.90;7.10;;;;;;;18.50;68.71;99677.32;109559;1270;23699;-75
2023/08/31 06:45:36;;;;;;;9.10;7.00;;;;;;;18.70;67.57;99680.63;109571;1269;22328;-75
2023/08/31 06:48:15;;;;;;;8.80;6.90;;;;;;;18.86;66.76;99682.69;109322;1271;22054;-75
2023/08/31 06:50:50;;;;;;;8.00;7.00;;;;;;;18.98;66.15;99679.58;109548;1271;22744;-75
2023/08/31 06:53:29;;;;;;;7.50;6.30;;;;;;;19.13;65.93;99678.84;109744;1265;22179;-75
2023/08/31 06:56:08;;;;;;;8.10;6.90;;;;;;;19.39;66.16;99678.38;109999;1265;22322;-75
2023/08/31 06:58:39;;;;;;;8.50;6.20;;;;;;;19.68;65.55;99676.45;109820;1254;21974;-75
2023/08/31 07:01:13;;;;;;;10.60;7.10;;;;;;;19.96;64.62;99675.13;110351;1260;22817;-74
2023/08/31 07:03:51;;;;;;;8.10;6.20;;;;;;;20.17;63.63;99675.25;109777;1268;22724;-76
2023/08/31 07:06:22;;;;;;;8.80;5.70;;;;;;;20.35;63.03;99676.75;110043;1261;21961;-77
2023/08/31 07:09:00;;;;;;;11.70;6.20;;;;;;;20.63;62.78;99679.06;110465;1261;21979;-77
2023/08/31 07:11:36;;;;;;;8.10;5.80;;;;;;;20.97;61.64;99684.50;110183;1266;21950;-75
2023/08/31 07:14:14;;;;;;;7.80;6.10;;;;;;;21.39;61.09;99686.84;109982;1268;21976;-75
2023/08/31 07:16:50;;;;;;;6.30;5.50;;;;;;;21.72;59.34;99688.72;109547;1266;23602;-75
2023/08/31 07:19:37;;;;;;;9.20;5.80;;;;;;;22.11;59.30;99690.39;109835;1268;24363;-76
2023/08/31 07:22:10;;;;;;;6.60;6.00;;;;;;;22.48;57.00;99692.73;109946;1260;23699;-75
2023/08/31 07:24:44;;;;;;;9.00;5.50;;;;;;;22.71;56.14;99693.27;110063;1264;22720;-76
2023/08/31 07:27:17;;;;;;;7.10;5.20;;;;;;;22.94;55.25;99689.56;110602;1263;21988;-76
2023/08/31 07:29:46;;;;;;;5.50;4.80;;;;;;;23.10;54.15;99681.97;110591;1258;21961;-75
2023/08/31 07:32:16;;;;;;;6.00;4.50;;;;;;;23.21;53.25;99684.95;110783;1258;22811;-75
2023/08/31 07:34:45;;;;;;;10.90;4.80;;;;;;;23.25;52.71;99687.54;110788;1258;21963;-75
2023/08/31 07:37:14;;;;;;;7.60;4.00;;;;;;;23.16;51.54;99690.95;110909;1258;22020;-76
2023/08/31 07:39:43;;;;;;;7.10;4.90;;;;;;;23.03;51.65;99701.28;110291;1265;23210;-75
2023/08/31 07:42:13;;;;;;;7.20;5.40;;;;;;;22.83;51.49;99702.92;110334;1260;23049;-75
2023/08/31 07:44:44;;;;;;;7.40;4.90;;;;;;;22.59;51.45;99703.84;110143;1265;23621;-75
2023/08/31 07:47:13;;;;;;;5.00;4.50;;;;;;;22.40;52.05;99706.14;110301;1265;22003;-76
2023/08/31 07:49:44;;;;;;;5.00;4.10;;;;;;;22.35;52.96;99708.03;109838;1265;21975;-76
2023/08/31 07:52:15;;;;;;;7.10;4.90;;;;;;;22.42;53.25;99709.41;110099;1265;23701;-75
2023/08/31 07:54:45;;;;;;;5.90;4.50;;;;;;;22.47;52.77;99717.27;109640;1265;21995;-74
2023/08/31 07:57:14;;;;;;;4.80;4.30;;;;;;;22.44;52.09;99714.05;109596;1263;23896;-75
2023/08/31 07:59:44;;;;;;;5.80;3.90;;;;;;;22.33;51.80;99716.89;110351;1263;21983;-75
2023/08/31 08:02:16;;;;;;;4.70;4.30;;;;;;;22.23;51.63;99717.09;110013;1263;21959;-75
2023/08/31 08:04:46;;;;;;;4.10;3.70;;;;;;;22.09;51.53;99724.09;110212;1263;21972;-75
2023/08/31 08:07:15;;;;;;;4.50;3.70;;;;;;;21.96;51.70;99727.48;110335;1263;21965;-75
2023/08/31 08:09:45;;;;;;;5.50;4.80;;;;;;;22.02;52.55;99729.45;110154;1260;23122;-76
2023/08/31 08:12:14;;;;;;;4.70;4.00;;;;;;;22.25;52.98;99736.20;110553;1260;22108;-75
2023/08/31 08:14:43;;;;;;;5.20;4.00;;;;;;;22.51;52.22;99734.11;110961;1260;21963;-76
2023/08/31 08:17:13;;;;;;;4.70;4.30;;;;;;;22.73;51.71;99738.67;110344;1265;22600;-75
2023/08/31 08:19:43;;;;;;;4.70;4.00;;;;;;;22.86;50.52;99742.14;110523;1265;21972;-74
2023/08/31 08:22:12;;;;;;;5.10;4.50;;;;;;;22.89;50.34;99738.84;110487;1265;21990;-76
2023/08/31 08:24:45;;;;;;;4.80;4.30;;;;;;;23.02;50.97;99743.80;110352;1265;24660;-76
2023/08/31 08:27:16;;;;;;;5.10;4.30;;;;;;;23.32;50.76;99745.77;110297;1260;23000;-76
2023/08/31 08:29:57;;;;;;;4.90;4.20;;;;;;;23.43;49.55;99746.81;110815;1260;23707;-75
2023/08/31 08:32:26;;;;;;;5.40;4.10;;;;;;;23.53;49.20;99752.55;109992;1266;21968;-76
2023/08/31 08:34:59;;;;;;;7.50;4.60;;;;;;;23.68;48.91;99755.57;109566;1265;23609;-75
2023/08/31 08:37:29;;;;;;;4.60;4.20;;;;;;;23.88;48.68;99757.88;110334;1263;23031;-75
2023/08/31 08:40:00;;;;;;;6.80;4.10;;;;;;;24.09;48.08;99754.08;109864;1265;22968;-76
2023/08/31 08:42:38;;;;;;;4.00;3.60;;;;;;;24.21;47.36;99750.73;110044;1265;21993;-76
2023/08/31 08:45:17;;;;;;;4.10;3.50;;;;;;;24.35;47.23;99754.81;110304;1265;21965;-75
2023/08/31 08:47:47;;;;;;;4.10;3.70;;;;;;;24.55;47.26;99761.08;110257;1265;23758;-77
2023/08/31 08:50:17;;;;;;;4.80;3.40;;;;;;;24.69;46.19;99765.98;110490;1259;23694;-75
2023/08/31 08:52:47;;;;;;;5.50;3.70;;;;;;;24.61;45.39;99771.31;110151;1267;21974;-75
2023/08/31 08:55:18;;;;;;;7.70;4.00;;;;;;;24.41;45.42;99779.88;110287;1266;21974;-75
2023/08/31 08:57:48;;;;;;;4.60;4.10;;;;;;;24.11;45.22;99784.67;110223;1267;22005;-77
2023/08/31 09:00:18;;;;;;;3.80;3.50;;;;;;;23.67;45.56;99785.39;110375;1261;23087;-79
2023/08/31 09:03:06;;;;;;;4.80;3.70;;;;;;;23.23;46.35;99794.05;110716;1261;22861;-77
2023/08/31 09:05:38;;;;;;;7.00;4.60;;;;;;;22.94;47.14;99794.95;110123;1266;22180;-76
2023/08/31 09:08:12;;;;;;;4.40;3.90;;;;;;;22.70;47.97;99796.21;110335;1266;22482;-77
2023/08/31 09:10:43;;;;;;;5.80;4.00;;;;;;;22.56;48.53;99799.94;110184;1262;22962;-77
2023/08/31 09:13:17;;;;;;;5.80;5.20;;;;;;;22.50;49.13;99801.34;110679;1263;22032;-77
2023/08/31 09:15:49;;;;;;;5.20;4.70;;;;;;;22.45;48.98;99796.50;110525;1259;22982;-75
2023/08/31 09:18:36;;;;;;;10.60;5.10;;;;;;;22.44;49.46;99795.75;110684;1262;22024;-78
2023/08/31 09:21:45;;;;;;;5.90;3.90;;;;;;;22.44;49.55;99800.54;111180;1263;22763;-79
2023/08/31 09:24:51;;;;;;;6.20;4.30;;;;;;;22.19;48.96;99813.30;110993;1266;21983;-77
2023/08/31 09:27:24;;;;;;;6.20;3.60;;;;;;;21.92;49.27;99820.48;109854;1266;21979;-75
2023/08/31 09:29:57;;;;;;;5.80;5.20;;;;;;;21.70;49.77;99825.88;110627;1259;23864;-76
2023/08/31 09:32:27;;;;;;;8.60;5.30;;;;;;;21.48;50.41;99828.96;110954;1252;22679;-75
2023/08/31 09:35:03;;;;;;;7.10;4.90;;;;;;;21.28;50.93;99835.89;110920;1259;23141;-76
2023/08/31 09:37:57;;;;;;;6.50;5.00;;;;;;;21.04;51.25;99835.06;110898;1259;21968;-77
2023/08/31 09:40:29;;;;;;;5.90;4.50;;;;;;;20.85;51.80;99833.55;110807;1263;22405;-77
2023/08/31 09:43:08;;;;;;;6.50;4.90;;;;;;;20.76;52.22;99839.14;110172;1268;21972;-77
2023/08/31 09:45:41;;;;;;;5.60;4.50;;;;;;;20.66;52.43;99843.25;110223;1267;23637;-81
2023/08/31 09:48:26;;;;;;;5.30;4.80;;;;;;;20.49;52.58;99839.89;110186;1264;21976;-76
2023/08/31 09:51:03;;;;;;;5.60;3.90;;;;;;;20.41;53.09;99843.41;110619;1264;22190;-76
2023/08/31 09:53:42;;;;;;;7.50;4.50;;;;;;;20.37;53.22;99844.50;110447;1264;22931;-77
2023/08/31 09:56:24;;;;;;;4.20;3.90;;;;;;;20.31;53.40;99844.59;109786;1269;21982;-76
2023/08/31 09:59:00;;;;;;;3.90;3.50;;;;;;;20.25;53.43;99844.96;109764;1266;21968;-77
2023/08/31 10:01:49;;;;;;;3.90;3.60;;;;;;;20.24;53.55;99855.27;110581;1260;23686;-75
2023/08/31 10:04:25;;;;;;;;;;;;;;;20.24;53.79;99852.49;110421;1266;21972;-76
2023/08/31 10:06:58;;;;;;;3.80;3.40;;;;;;;20.19;54.27;99846.89;110433;1266;22033;-76
2023/08/31 10:09:32;;;;;;;5.40;3.40;;;;;;;20.30;54.45;99844.55;109777;1271;21988;-75
2023/08/31 10:12:14;;;;;;;4.00;3.60;;;;;;;20.46;54.40;99844.22;109739;1271;22030;-75
2023/08/31 10:14:51;;;;;;;4.00;3.00;;;;;;;20.63;53.94;99843.62;109936;1268;23066;-76
2023/08/31 10:17:25;;;;;;;3.80;3.40;;;;;;;20.73;53.48;99846.70;110237;1268;22061;-76
2023/08/31 10:20:02;;;;;;;3.70;3.10;;;;;;;20.72;52.87;99844.63;110288;1268;22904;-77
2023/08/31 10:22:41;;;;;;;5.60;3.10;;;;;;;20.68;52.65;99839.68;110159;1268;21965;-75
2023/08/31 10:25:16;;;;;;;4.30;3.10;;;;;;;20.62;52.61;99833.61;109429;1272;22096;-77
2023/08/31 10:27:55;;;;;;;4.60;3.40;;;;;;;20.62;52.93;99834.16;110130;1265;23663;-78
2023/08/31 10:30:41;;;;;;;4.70;3.10;;;;;;;20.64;53.11;99829.77;110834;1260;21982;-79
2023/08/31 10:33:17;;;;;;;5.80;2.80;;;;;;;20.68;52.82;99831.41;110232;1265;21993;-77
2023/08/31 10:36:09;;;;;;;2.80;2.50;;;;;;;20.64;52.38;99834.34;109798;1271;21988;-78
2023/08/31 10:38:39;;;;;;;3.40;2.60;;;;;;;20.56;51.88;99839.52;109610;1271;21976;-77
2023/08/31 10:41:11;;;;;;;10.10;3.20;;;;;;;20.43;51.77;99844.45;109804;1262;23773;-77
2023/08/31 10:43:59;;;;;;;2.80;2.60;;;;;;;20.30;52.00;99855.37;110141;1264;21970;-77
2023/08/31 10:46:46;;;;;;;3.80;2.00;;;;;;;20.11;52.13;99860.02;110140;1264;21980;-78
2023/08/31 10:49:40;;;;;;;5.30;2.40;;;;;;;19.95;52.42;99860.81;109918;1268;23865;-78
2023/08/31 10:52:19;;;;;;;2.80;2.10;;;;;;;19.81;52.74;99867.46;109722;1270;23719;-77
2023/08/31 10:55:05;;;;;;;4.00;2.30;;;;;;;19.68;52.87;99875.94;109607;1270;21982;-78
2023/08/31 10:58:11;;;;;;;2.90;2.40;;;;;;;19.48;53.19;99877.70;109156;1275;21985;-79
2023/08/31 11:01:15;;;;;;;4.80;3.90;;;;;;;19.32;53.81;99875.86;109144;1275;21979;-79
2023/08/31 11:04:12;;;;;;;3.40;2.50;;;;;;;19.21;54.48;99873.97;109187;1275;21975;-77
2023/08/31 11:07:34;;;;;;;3.20;1.90;;;;;;;19.09;54.95;99876.48;109345;1275;22495;-79
2023/08/31 11:10:30;;;;;;;2.70;1.90;;;;;;;18.96;54.96;99875.95;109491;1275;22044;-79
2023/08/31 11:13:23;;;;;;;4.40;2.00;;;;;;;18.87;55.04;99874.42;109429;1275;22013;-80
2023/08/31 11:16:05;;;;;;;3.40;2.10;;;;;;;18.89;54.94;99874.27;109506;1270;23609;-78
2023/08/31 11:19:13;;;;;;;2.00;1.40;;;;;;;18.88;54.74;99872.40;110121;1269;21988;-81
2023/08/31 11:22:09;;;;;;;1.80;1.20;;;;;;;18.91;54.20;99872.15;109850;1272;22081;-79
2023/08/31 11:24:46;;;;;;;2.50;1.40;;;;;;;18.97;53.81;99879.38;110205;1267;23730;-79
2023/08/31 11:27:43;;;;;;;2.20;1.30;;;;;;;19.03;53.45;99891.43;110132;1267;22223;-79
2023/08/31 11:30:20;;;;;;;3.70;1.60;;;;;;;19.06;53.12;99892.39;109518;1274;24609;-81
2023/08/31 11:33:11;;;;;;;2.10;1.80;;;;;;;19.01;52.83;99896.86;109420;1273;23094;-79
2023/08/31 11:36:19;;;;;;;;;;;;;;;;;;;;;
2023/08/31 11:39:33;;;;;;;2.80;1.90;;;;;;;18.68;53.41;99896.48;109353;1270;23627;-81
2023/08/31 11:42:34;;;;;;;3.50;2.40;;;;;;;18.51;54.05;99897.84;109604;1268;21986;-80
2023/08/31 11:45:19;;;;;;;2.80;2.50;;;;;;;18.43;54.64;99905.33;109136;1275;22223;-79
2023/08/31 11:48:15;;;;;;;2.90;2.60;;;;;;;18.38;55.37;99906.25;109117;1274;21993;-79
2023/08/31 11:51:19;;;;;;;4.70;2.90;;;;;;;18.29;55.81;99899.46;109066;1280;23849;-80
2023/08/31 11:54:58;;;;;;;3.10;2.80;;;;;;;18.23;56.48;99894.52;109164;1279;22013;-81
2023/08/31 11:58:29;;;;;;;3.20;2.80;;;;;;;18.13;57.07;99901.41;108442;1289;22002;-80
2023/08/31 12:01:32;;;;;;;3.70;2.70;;;;;;;18.13;57.72;99900.08;108789;1284;22509;-79
2023/08/31 12:04:40;;;;;;;3.10;2.50;;;;;;;18.18;58.03;99895.10;108781;1284;22038;-79
2023/08/31 12:07:41;;;;;;;;;;;;;;;;;;;;;
2023/08/31 12:10:24;;;;;;;3.60;2.50;;;;;;;18.43;58.31;99894.41;109250;1276;22123;-80
2023/08/31 12:13:51;;;;;;;2.30;2.00;;;;;;;18.56;57.96;99891.10;109311;1275;23676;-81
2023/08/31 12:16:41;;;;;;;4.80;2.50;;;;;;;18.62;57.52;99888.84;109237;1276;23712;-80
2023/08/31 12:19:40;;;;;;;4.00;3.10;;;;;;;18.73;57.87;99887.63;109155;1276;21994;-82